sensor_id;sensor_type;location;lat;lon;timestamp;temperature;humidity
39899;DHT22;25571;47.876;10.642;2023-05-07T00:02:02;12.10;99.90
39899;DHT22;25571;47.876;10.642;2023-05-07T00:04:29;12.10;99.90
39899;DHT22;25571;47.876;10.642;2023-05-07T00:07:01;12.10;99.90
39899;DHT22;25571;47.876;10.642;2023-05-07T00:09:26;12.00;99.90
39899;DHT22;25571;47.876;10.642;2023-05-07T00:11:52;12.00;99.90
39899;DHT22;25571;47.876;10.642;2023-05-07T00:14:18;12.00;99.90
39899;DHT22;25571;47.876;10.642;2023-05-07T00:16:43;12.00;99.90
39899;DHT22;25571;47.876;10.642;2023-05-07T00:19:09;12.00;99.90
39899;DHT22;25571;47.876;10.642;2023-05-07T00:21:34;12.00;99.90
39899;DHT22;25571;47.876;10.642;2023-05-07T00:24:00;12.00;99.90
39899;DHT22;25571;47.876;10.642;2023-05-07T00:26:26;12.00;99.90
39899;DHT22;25571;47.876;10.642;2023-05-07T00:28:51;11.90;99.90
39899;DHT22;25571;47.876;10.642;2023-05-07T00:31:17;12.00;99.90
39899;DHT22;25571;47.876;10.642;2023-05-07T00:33:43;12.00;99.90
39899;DHT22;25571;47.876;10.642;2023-05-07T00:36:08;12.00;99.90
39899;DHT22;25571;47.876;10.642;2023-05-07T00:38:34;12.00;99.90
39899;DHT22;25571;47.876;10.642;2023-05-07T00:40:59;11.80;99.90
39899;DHT22;25571;47.876;10.642;2023-05-07T00:43:25;11.80;99.90
39899;DHT22;25571;47.876;10.642;2023-05-07T00:45:51;11.80;99.90
39899;DHT22;25571;47.876;10.642;2023-05-07T00:48:17;11.80;99.90
39899;DHT22;25571;47.876;10.642;2023-05-07T00:50:43;11.70;99.90
39899;DHT22;25571;47.876;10.642;2023-05-07T00:53:09;11.70;99.90
39899;DHT22;25571;47.876;10.642;2023-05-07T00:55:35;11.80;99.90
39899;DHT22;25571;47.876;10.642;2023-05-07T00:58:01;11.80;99.90
39899;DHT22;25571;47.876;10.642;2023-05-07T01:00:27;11.70;99.90
39899;DHT22;25571;47.876;10.642;2023-05-07T01:02:53;11.70;99.90
39899;DHT22;25571;47.876;10.642;2023-05-07T01:05:20;11.80;99.90
39899;DHT22;25571;47.876;10.642;2023-05-07T01:07:47;11.70;99.90
39899;DHT22;25571;47.876;10.642;2023-05-07T01:10:14;11.80;99.90
39899;DHT22;25571;47.876;10.642;2023-05-07T01:12:40;11.80;99.90
39899;DHT22;25571;47.876;10.642;2023-05-07T01:15:08;11.80;99.90
39899;DHT22;25571;47.876;10.642;2023-05-07T01:17:43;11.80;99.90
39899;DHT22;25571;47.876;10.642;2023-05-07T01:20:10;11.80;99.90
39899;DHT22;25571;47.876;10.642;2023-05-07T01:22:39;11.90;99.90
39899;DHT22;25571;47.876;10.642;2023-05-07T01:25:06;11.90;99.90
39899;DHT22;25571;47.876;10.642;2023-05-07T01:27:32;11.90;99.90
39899;DHT22;25571;47.876;10.642;2023-05-07T01:30:03;11.90;99.90
39899;DHT22;25571;47.876;10.642;2023-05-07T01:32:35;11.90;99.90
39899;DHT22;25571;47.876;10.642;2023-05-07T01:35:02;11.80;99.90
39899;DHT22;25571;47.876;10.642;2023-05-07T01:37:30;11.80;99.90
39899;DHT22;25571;47.876;10.642;2023-05-07T01:39:56;11.80;99.90
39899;DHT22;25571;47.876;10.642;2023-05-07T01:42:22;11.80;99.90
39899;DHT22;25571;47.876;10.642;2023-05-07T01:44:48;11.80;99.90
39899;DHT22;25571;47.876;10.642;2023-05-07T01:47:14;11.80;99.90
39899;DHT22;25571;47.876;10.642;2023-05-07T01:49:40;11.70;99.90
39899;DHT22;25571;47.876;10.642;2023-05-07T01:52:07;11.80;99.90
39899;DHT22;25571;47.876;10.642;2023-05-07T01:54:32;11.80;99.90
39899;DHT22;25571;47.876;10.642;2023-05-07T01:56:58;11.80;99.90
39899;DHT22;25571;47.876;10.642;2023-05-07T01:59:23;11.80;99.90
39899;DHT22;25571;47.876;10.642;2023-05-07T02:01:49;11.90;99.90
39899;DHT22;25571;47.876;10.642;2023-05-07T02:04:15;12.00;99.90
39899;DHT22;25571;47.876;10.642;2023-05-07T02:06:40;11.90;99.90
39899;DHT22;25571;47.876;10.642;2023-05-07T02:09:06;11.80;99.90
39899;DHT22;25571;47.876;10.642;2023-05-07T02:11:31;11.80;99.90
39899;DHT22;25571;47.876;10.642;2023-05-07T02:13:57;11.70;99.90
39899;DHT22;25571;47.876;10.642;2023-05-07T02:16:23;11.70;99.90
39899;DHT22;25571;47.876;10.642;2023-05-07T02:18:49;11.80;99.90
39899;DHT22;25571;47.876;10.642;2023-05-07T02:21:15;11.90;99.90
39899;DHT22;25571;47.876;10.642;2023-05-07T02:23:40;11.90;99.90
39899;DHT22;25571;47.876;10.642;2023-05-07T02:26:06;11.80;99.90
39899;DHT22;25571;47.876;10.642;2023-05-07T02:28:32;11.70;99.90
39899;DHT22;25571;47.876;10.642;2023-05-07T02:30:57;11.70;99.90
39899;DHT22;25571;47.876;10.642;2023-05-07T02:33:26;11.60;99.90
39899;DHT22;25571;47.876;10.642;2023-05-07T02:35:51;11.60;99.90
39899;DHT22;25571;47.876;10.642;2023-05-07T02:38:17;11.70;99.90
39899;DHT22;25571;47.876;10.642;2023-05-07T02:40:43;11.70;99.90
39899;DHT22;25571;47.876;10.642;2023-05-07T02:43:09;11.60;99.90
39899;DHT22;25571;47.876;10.642;2023-05-07T02:45:34;11.50;99.90
39899;DHT22;25571;47.876;10.642;2023-05-07T02:48:01;11.50;99.90
39899;DHT22;25571;47.876;10.642;2023-05-07T02:50:26;11.50;99.90
39899;DHT22;25571;47.876;10.642;2023-05-07T02:52:52;11.60;99.90
39899;DHT22;25571;47.876;10.642;2023-05-07T02:55:18;11.50;99.90
39899;DHT22;25571;47.876;10.642;2023-05-07T02:57:43;11.50;99.90
39899;DHT22;25571;47.876;10.642;2023-05-07T03:00:19;11.50;99.90
39899;DHT22;25571;47.876;10.642;2023-05-07T03:02:45;11.50;99.90
39899;DHT22;25571;47.876;10.642;2023-05-07T03:05:11;11.60;99.90
39899;DHT22;25571;47.876;10.642;2023-05-07T03:07:37;11.50;99.90
39899;DHT22;25571;47.876;10.642;2023-05-07T03:10:04;11.50;99.90
39899;DHT22;25571;47.876;10.642;2023-05-07T03:12:30;11.50;99.90
39899;DHT22;25571;47.876;10.642;2023-05-07T03:14:56;11.40;99.90
39899;DHT22;25571;47.876;10.642;2023-05-07T03:17:22;11.20;99.90
39899;DHT22;25571;47.876;10.642;2023-05-07T03:19:48;11.20;99.90
39899;DHT22;25571;47.876;10.642;2023-05-07T03:22:14;11.20;99.90
39899;DHT22;25571;47.876;10.642;2023-05-07T03:24:40;11.20;99.90
39899;DHT22;25571;47.876;10.642;2023-05-07T03:27:05;11.30;99.90
39899;DHT22;25571;47.876;10.642;2023-05-07T03:29:31;11.20;99.90
39899;DHT22;25571;47.876;10.642;2023-05-07T03:31:56;11.20;99.90
39899;DHT22;25571;47.876;10.642;2023-05-07T03:34:22;11.20;99.90
39899;DHT22;25571;47.876;10.642;2023-05-07T03:36:51;11.20;99.90
39899;DHT22;25571;47.876;10.642;2023-05-07T03:39:16;11.20;99.90
39899;DHT22;25571;47.876;10.642;2023-05-07T03:41:42;11.20;99.90
39899;DHT22;25571;47.876;10.642;2023-05-07T03:44:07;11.30;99.90
39899;DHT22;25571;47.876;10.642;2023-05-07T03:46:33;11.60;99.90
39899;DHT22;25571;47.876;10.642;2023-05-07T03:48:59;11.10;99.90
39899;DHT22;25571;47.876;10.642;2023-05-07T03:51:25;11.10;99.90
39899;DHT22;25571;47.876;10.642;2023-05-07T03:53:51;11.10;99.90
39899;DHT22;25571;47.876;10.642;2023-05-07T03:56:20;11.10;99.90
39899;DHT22;25571;47.876;10.642;2023-05-07T03:58:47;11.00;99.90
39899;DHT22;25571;47.876;10.642;2023-05-07T04:01:12;11.00;99.90
39899;DHT22;25571;47.876;10.642;2023-05-07T04:03:38;11.00;99.90
39899;DHT22;25571;47.876;10.642;2023-05-07T04:06:03;10.90;99.90
39899;DHT22;25571;47.876;10.642;2023-05-07T04:08:29;10.90;99.90
39899;DHT22;25571;47.876;10.642;2023-05-07T04:10:58;10.90;99.90
39899;DHT22;25571;47.876;10.642;2023-05-07T04:13:24;10.90;99.90
39899;DHT22;25571;47.876;10.642;2023-05-07T04:15:51;11.00;99.90
39899;DHT22;25571;47.876;10.642;2023-05-07T04:18:16;11.00;99.90
39899;DHT22;25571;47.876;10.642;2023-05-07T04:20:42;11.00;99.90
39899;DHT22;25571;47.876;10.642;2023-05-07T04:23:07;10.90;99.90
39899;DHT22;25571;47.876;10.642;2023-05-07T04:25:33;11.00;99.90
39899;DHT22;25571;47.876;10.642;2023-05-07T04:27:59;11.00;99.90
39899;DHT22;25571;47.876;10.642;2023-05-07T04:30:25;10.90;99.90
39899;DHT22;25571;47.876;10.642;2023-05-07T04:32:50;10.90;99.90
39899;DHT22;25571;47.876;10.642;2023-05-07T04:35:16;10.90;99.90
39899;DHT22;25571;47.876;10.642;2023-05-07T04:37:42;11.00;99.90
39899;DHT22;25571;47.876;10.642;2023-05-07T04:40:08;11.10;99.90
39899;DHT22;25571;47.876;10.642;2023-05-07T04:42:34;11.20;99.90
39899;DHT22;25571;47.876;10.642;2023-05-07T04:44:59;11.20;99.90
39899;DHT22;25571;47.876;10.642;2023-05-07T04:47:25;11.10;99.90
39899;DHT22;25571;47.876;10.642;2023-05-07T04:49:51;11.30;99.90
39899;DHT22;25571;47.876;10.642;2023-05-07T04:52:16;11.30;99.90
39899;DHT22;25571;47.876;10.642;2023-05-07T04:54:42;11.40;99.90
39899;DHT22;25571;47.876;10.642;2023-05-07T04:57:07;11.50;99.90
39899;DHT22;25571;47.876;10.642;2023-05-07T04:59:33;11.80;99.90
39899;DHT22;25571;47.876;10.642;2023-05-07T05:01:58;12.20;99.90
39899;DHT22;25571;47.876;10.642;2023-05-07T05:04:24;12.60;99.90
39899;DHT22;25571;47.876;10.642;2023-05-07T05:06:50;12.60;99.90
39899;DHT22;25571;47.876;10.642;2023-05-07T05:09:15;12.60;99.90
39899;DHT22;25571;47.876;10.642;2023-05-07T05:11:41;12.70;99.90
39899;DHT22;25571;47.876;10.642;2023-05-07T05:14:07;12.70;99.90
39899;DHT22;25571;47.876;10.642;2023-05-07T05:16:32;12.80;99.90
39899;DHT22;25571;47.876;10.642;2023-05-07T05:18:58;12.90;99.90
39899;DHT22;25571;47.876;10.642;2023-05-07T05:21:24;12.90;99.90
39899;DHT22;25571;47.876;10.642;2023-05-07T05:23:50;12.90;99.90
39899;DHT22;25571;47.876;10.642;2023-05-07T05:26:15;13.00;99.90
39899;DHT22;25571;47.876;10.642;2023-05-07T05:28:41;13.00;99.90
39899;DHT22;25571;47.876;10.642;2023-05-07T05:31:06;13.20;99.90
39899;DHT22;25571;47.876;10.642;2023-05-07T05:33:32;13.30;99.90
39899;DHT22;25571;47.876;10.642;2023-05-07T05:35:57;13.60;99.90
39899;DHT22;25571;47.876;10.642;2023-05-07T05:38:23;13.60;99.90
39899;DHT22;25571;47.876;10.642;2023-05-07T05:40:48;13.70;99.90
39899;DHT22;25571;47.876;10.642;2023-05-07T05:43:14;13.80;99.90
39899;DHT22;25571;47.876;10.642;2023-05-07T05:45:40;13.90;99.90
39899;DHT22;25571;47.876;10.642;2023-05-07T05:48:05;14.10;99.90
39899;DHT22;25571;47.876;10.642;2023-05-07T05:50:31;14.10;99.90
39899;DHT22;25571;47.876;10.642;2023-05-07T05:52:57;14.30;99.90
39899;DHT22;25571;47.876;10.642;2023-05-07T05:55:23;14.50;99.90
39899;DHT22;25571;47.876;10.642;2023-05-07T05:57:49;14.50;99.90
39899;DHT22;25571;47.876;10.642;2023-05-07T06:00:16;14.50;99.90
39899;DHT22;25571;47.876;10.642;2023-05-07T06:02:41;14.60;99.90
39899;DHT22;25571;47.876;10.642;2023-05-07T06:05:08;14.60;99.90
39899;DHT22;25571;47.876;10.642;2023-05-07T06:07:34;14.60;99.90
39899;DHT22;25571;47.876;10.642;2023-05-07T06:10:00;15.00;99.90
39899;DHT22;25571;47.876;10.642;2023-05-07T06:12:26;15.50;99.90
39899;DHT22;25571;47.876;10.642;2023-05-07T06:14:51;15.70;99.90
39899;DHT22;25571;47.876;10.642;2023-05-07T06:17:17;15.90;99.90
39899;DHT22;25571;47.876;10.642;2023-05-07T06:19:43;16.10;99.90
39899;DHT22;25571;47.876;10.642;2023-05-07T06:22:08;16.20;99.90
39899;DHT22;25571;47.876;10.642;2023-05-07T06:24:34;16.30;99.90
39899;DHT22;25571;47.876;10.642;2023-05-07T06:26:59;16.80;99.90
39899;DHT22;25571;47.876;10.642;2023-05-07T06:29:25;17.50;99.90
39899;DHT22;25571;47.876;10.642;2023-05-07T06:31:52;17.90;99.90
39899;DHT22;25571;47.876;10.642;2023-05-07T06:34:18;17.90;99.90
39899;DHT22;25571;47.876;10.642;2023-05-07T06:36:43;17.70;99.90
39899;DHT22;25571;47.876;10.642;2023-05-07T06:39:09;17.60;99.90
39899;DHT22;25571;47.876;10.642;2023-05-07T06:41:35;17.90;99.90
39899;DHT22;25571;47.876;10.642;2023-05-07T06:44:02;17.90;99.90
39899;DHT22;25571;47.876;10.642;2023-05-07T06:46:28;18.10;99.90
39899;DHT22;25571;47.876;10.642;2023-05-07T06:48:54;18.20;99.90
39899;DHT22;25571;47.876;10.642;2023-05-07T06:51:20;18.40;99.90
39899;DHT22;25571;47.876;10.642;2023-05-07T06:53:45;18.50;99.90
39899;DHT22;25571;47.876;10.642;2023-05-07T06:56:11;18.60;99.90
39899;DHT22;25571;47.876;10.642;2023-05-07T06:58:37;18.70;99.90
39899;DHT22;25571;47.876;10.642;2023-05-07T07:01:02;18.90;99.90
39899;DHT22;25571;47.876;10.642;2023-05-07T07:03:28;19.20;99.90
39899;DHT22;25571;47.876;10.642;2023-05-07T07:05:54;19.20;99.90
39899;DHT22;25571;47.876;10.642;2023-05-07T07:08:20;19.40;99.90
39899;DHT22;25571;47.876;10.642;2023-05-07T07:10:47;19.50;99.90
39899;DHT22;25571;47.876;10.642;2023-05-07T07:13:12;19.70;99.90
39899;DHT22;25571;47.876;10.642;2023-05-07T07:15:38;19.90;99.90
39899;DHT22;25571;47.876;10.642;2023-05-07T07:18:04;20.20;99.90
39899;DHT22;25571;47.876;10.642;2023-05-07T07:20:30;20.40;99.90
39899;DHT22;25571;47.876;10.642;2023-05-07T07:22:55;20.60;99.90
39899;DHT22;25571;47.876;10.642;2023-05-07T07:25:21;20.70;99.90
39899;DHT22;25571;47.876;10.642;2023-05-07T07:27:47;21.10;99.90
39899;DHT22;25571;47.876;10.642;2023-05-07T07:30:12;21.30;99.90
39899;DHT22;25571;47.876;10.642;2023-05-07T07:32:38;21.50;99.90
39899;DHT22;25571;47.876;10.642;2023-05-07T07:35:04;21.90;99.90
39899;DHT22;25571;47.876;10.642;2023-05-07T07:37:30;22.30;99.90
39899;DHT22;25571;47.876;10.642;2023-05-07T07:39:55;22.60;99.90
39899;DHT22;25571;47.876;10.642;2023-05-07T07:42:21;22.90;99.90
39899;DHT22;25571;47.876;10.642;2023-05-07T07:44:46;23.40;99.90
39899;DHT22;25571;47.876;10.642;2023-05-07T07:47:12;23.60;99.90
39899;DHT22;25571;47.876;10.642;2023-05-07T07:49:38;24.80;98.30
39899;DHT22;25571;47.876;10.642;2023-05-07T07:52:03;27.90;94.30
39899;DHT22;25571;47.876;10.642;2023-05-07T07:54:29;29.60;85.90
39899;DHT22;25571;47.876;10.642;2023-05-07T07:56:55;29.80;80.40
39899;DHT22;25571;47.876;10.642;2023-05-07T07:59:21;30.50;76.20
39899;DHT22;25571;47.876;10.642;2023-05-07T08:01:46;31.50;71.10
39899;DHT22;25571;47.876;10.642;2023-05-07T08:04:14;32.90;65.40
39899;DHT22;25571;47.876;10.642;2023-05-07T08:06:40;31.90;62.80
39899;DHT22;25571;47.876;10.642;2023-05-07T08:09:06;30.80;63.90
39899;DHT22;25571;47.876;10.642;2023-05-07T08:11:31;30.30;65.80
39899;DHT22;25571;47.876;10.642;2023-05-07T08:13:57;30.20;65.10
39899;DHT22;25571;47.876;10.642;2023-05-07T08:16:22;31.10;64.10
39899;DHT22;25571;47.876;10.642;2023-05-07T08:18:48;31.20;63.30
39899;DHT22;25571;47.876;10.642;2023-05-07T08:21:14;34.40;57.70
39899;DHT22;25571;47.876;10.642;2023-05-07T08:23:40;37.50;53.70
39899;DHT22;25571;47.876;10.642;2023-05-07T08:26:05;40.00;48.10
39899;DHT22;25571;47.876;10.642;2023-05-07T08:28:32;41.70;42.80
39899;DHT22;25571;47.876;10.642;2023-05-07T08:30:58;43.20;40.40
39899;DHT22;25571;47.876;10.642;2023-05-07T08:33:25;45.20;35.60
39899;DHT22;25571;47.876;10.642;2023-05-07T08:35:51;46.30;33.30
39899;DHT22;25571;47.876;10.642;2023-05-07T08:38:16;46.50;32.10
39899;DHT22;25571;47.876;10.642;2023-05-07T08:40:42;47.10;30.30
39899;DHT22;25571;47.876;10.642;2023-05-07T08:43:08;47.00;30.40
39899;DHT22;25571;47.876;10.642;2023-05-07T08:45:38;47.00;28.50
39899;DHT22;25571;47.876;10.642;2023-05-07T08:48:09;48.20;28.30
39899;DHT22;25571;47.876;10.642;2023-05-07T08:50:38;49.30;27.80
39899;DHT22;25571;47.876;10.642;2023-05-07T08:53:04;48.50;27.90
39899;DHT22;25571;47.876;10.642;2023-05-07T08:55:30;47.20;28.00
39899;DHT22;25571;47.876;10.642;2023-05-07T08:57:56;45.10;28.90
39899;DHT22;25571;47.876;10.642;2023-05-07T09:00:22;44.10;29.40
39899;DHT22;25571;47.876;10.642;2023-05-07T09:02:48;41.70;31.90
39899;DHT22;25571;47.876;10.642;2023-05-07T09:05:13;39.40;35.10
39899;DHT22;25571;47.876;10.642;2023-05-07T09:07:39;37.80;37.30
39899;DHT22;25571;47.876;10.642;2023-05-07T09:10:06;36.90;38.70
39899;DHT22;25571;47.876;10.642;2023-05-07T09:12:32;36.20;38.60
39899;DHT22;25571;47.876;10.642;2023-05-07T09:14:59;35.00;40.50
39899;DHT22;25571;47.876;10.642;2023-05-07T09:17:25;34.70;41.50
39899;DHT22;25571;47.876;10.642;2023-05-07T09:19:50;34.00;42.70
39899;DHT22;25571;47.876;10.642;2023-05-07T09:22:16;33.30;44.40
39899;DHT22;25571;47.876;10.642;2023-05-07T09:24:48;32.70;45.10
39899;DHT22;25571;47.876;10.642;2023-05-07T09:27:14;32.00;46.40
39899;DHT22;25571;47.876;10.642;2023-05-07T09:29:40;31.10;47.70
39899;DHT22;25571;47.876;10.642;2023-05-07T09:32:06;30.50;48.20
39899;DHT22;25571;47.876;10.642;2023-05-07T09:34:32;30.00;49.70
39899;DHT22;25571;47.876;10.642;2023-05-07T09:37:03;29.80;49.90
39899;DHT22;25571;47.876;10.642;2023-05-07T09:39:43;29.50;49.80
39899;DHT22;25571;47.876;10.642;2023-05-07T09:42:09;29.10;50.60
39899;DHT22;25571;47.876;10.642;2023-05-07T09:44:37;28.70;52.30
39899;DHT22;25571;47.876;10.642;2023-05-07T09:47:05;28.50;52.80
39899;DHT22;25571;47.876;10.642;2023-05-07T09:49:38;27.60;53.30
39899;DHT22;25571;47.876;10.642;2023-05-07T09:52:06;27.40;53.70
39899;DHT22;25571;47.876;10.642;2023-05-07T09:54:35;27.20;54.30
39899;DHT22;25571;47.876;10.642;2023-05-07T09:57:04;27.30;54.80
39899;DHT22;25571;47.876;10.642;2023-05-07T09:59:32;27.10;54.50
39899;DHT22;25571;47.876;10.642;2023-05-07T10:01:59;27.40;53.70
39899;DHT22;25571;47.876;10.642;2023-05-07T10:04:25;27.00;53.90
39899;DHT22;25571;47.876;10.642;2023-05-07T10:06:52;26.90;54.10
39899;DHT22;25571;47.876;10.642;2023-05-07T10:09:18;26.60;54.10
39899;DHT22;25571;47.876;10.642;2023-05-07T10:11:44;26.50;54.50
39899;DHT22;25571;47.876;10.642;2023-05-07T10:14:10;26.60;55.00
39899;DHT22;25571;47.876;10.642;2023-05-07T10:16:36;26.60;56.10
39899;DHT22;25571;47.876;10.642;2023-05-07T10:19:06;26.20;56.90
39899;DHT22;25571;47.876;10.642;2023-05-07T10:21:36;25.70;57.80
39899;DHT22;25571;47.876;10.642;2023-05-07T10:24:05;25.60;57.80
39899;DHT22;25571;47.876;10.642;2023-05-07T10:26:32;25.60;58.20
39899;DHT22;25571;47.876;10.642;2023-05-07T10:29:04;25.30;57.70
39899;DHT22;25571;47.876;10.642;2023-05-07T10:31:48;25.20;57.10
39899;DHT22;25571;47.876;10.642;2023-05-07T10:34:20;25.10;57.00
39899;DHT22;25571;47.876;10.642;2023-05-07T10:36:47;25.40;58.70
39899;DHT22;25571;47.876;10.642;2023-05-07T10:39:13;25.40;56.50
39899;DHT22;25571;47.876;10.642;2023-05-07T10:41:39;25.60;57.80
39899;DHT22;25571;47.876;10.642;2023-05-07T10:44:05;25.80;58.20
39899;DHT22;25571;47.876;10.642;2023-05-07T10:46:31;25.70;55.50
39899;DHT22;25571;47.876;10.642;2023-05-07T10:51:27;25.00;57.30
39899;DHT22;25571;47.876;10.642;2023-05-07T10:56:41;24.80;56.70
39899;DHT22;25571;47.876;10.642;2023-05-07T11:01:56;24.70;59.10
39899;DHT22;25571;47.876;10.642;2023-05-07T11:04:28;24.60;58.20
39899;DHT22;25571;47.876;10.642;2023-05-07T11:15:10;24.20;61.00
39899;DHT22;25571;47.876;10.642;2023-05-07T11:20:20;23.80;63.00
39899;DHT22;25571;47.876;10.642;2023-05-07T11:22:46;23.60;61.70
39899;DHT22;25571;47.876;10.642;2023-05-07T11:25:18;23.50;63.30
39899;DHT22;25571;47.876;10.642;2023-05-07T11:27:45;23.40;63.50
39899;DHT22;25571;47.876;10.642;2023-05-07T11:30:17;23.40;62.90
39899;DHT22;25571;47.876;10.642;2023-05-07T11:32:47;23.30;62.70
39899;DHT22;25571;47.876;10.642;2023-05-07T11:35:15;23.30;63.90
39899;DHT22;25571;47.876;10.642;2023-05-07T11:37:41;23.20;64.70
39899;DHT22;25571;47.876;10.642;2023-05-07T11:40:08;23.10;66.90
39899;DHT22;25571;47.876;10.642;2023-05-07T11:42:37;23.00;67.00
39899;DHT22;25571;47.876;10.642;2023-05-07T11:45:04;22.90;68.00
39899;DHT22;25571;47.876;10.642;2023-05-07T11:47:31;22.80;67.40
39899;DHT22;25571;47.876;10.642;2023-05-07T11:50:05;22.70;68.40
39899;DHT22;25571;47.876;10.642;2023-05-07T11:52:32;22.60;70.20
39899;DHT22;25571;47.876;10.642;2023-05-07T11:54:58;22.50;70.10
39899;DHT22;25571;47.876;10.642;2023-05-07T11:57:25;22.50;70.00
39899;DHT22;25571;47.876;10.642;2023-05-07T11:59:59;22.30;68.70
39899;DHT22;25571;47.876;10.642;2023-05-07T12:02:25;22.40;68.80
39899;DHT22;25571;47.876;10.642;2023-05-07T12:04:52;22.40;69.10
39899;DHT22;25571;47.876;10.642;2023-05-07T12:07:17;22.40;68.20
39899;DHT22;25571;47.876;10.642;2023-05-07T12:09:44;22.60;66.70
39899;DHT22;25571;47.876;10.642;2023-05-07T12:12:11;22.60;67.70
39899;DHT22;25571;47.876;10.642;2023-05-07T12:14:40;22.60;65.90
39899;DHT22;25571;47.876;10.642;2023-05-07T12:17:07;22.60;66.60
39899;DHT22;25571;47.876;10.642;2023-05-07T12:19:34;22.60;65.50
39899;DHT22;25571;47.876;10.642;2023-05-07T12:22:02;22.50;66.30
39899;DHT22;25571;47.876;10.642;2023-05-07T12:24:27;22.40;64.40
39899;DHT22;25571;47.876;10.642;2023-05-07T12:26:53;22.50;71.10
39899;DHT22;25571;47.876;10.642;2023-05-07T12:29:22;22.40;77.10
39899;DHT22;25571;47.876;10.642;2023-05-07T12:31:49;22.30;78.70
39899;DHT22;25571;47.876;10.642;2023-05-07T12:34:15;22.00;78.20
39899;DHT22;25571;47.876;10.642;2023-05-07T12:36:41;21.80;74.50
39899;DHT22;25571;47.876;10.642;2023-05-07T12:39:07;21.90;80.10
39899;DHT22;25571;47.876;10.642;2023-05-07T12:44:22;21.90;75.80
39899;DHT22;25571;47.876;10.642;2023-05-07T12:46:48;22.00;73.60
39899;DHT22;25571;47.876;10.642;2023-05-07T12:49:13;22.10;73.20
39899;DHT22;25571;47.876;10.642;2023-05-07T12:51:39;22.10;69.10
39899;DHT22;25571;47.876;10.642;2023-05-07T12:54:05;22.10;70.70
39899;DHT22;25571;47.876;10.642;2023-05-07T12:56:31;21.90;74.40
39899;DHT22;25571;47.876;10.642;2023-05-07T12:59:00;22.10;69.20
39899;DHT22;25571;47.876;10.642;2023-05-07T13:01:28;22.10;66.50
39899;DHT22;25571;47.876;10.642;2023-05-07T13:03:54;22.00;65.70
39899;DHT22;25571;47.876;10.642;2023-05-07T13:06:20;22.10;69.50
39899;DHT22;25571;47.876;10.642;2023-05-07T13:08:45;22.20;70.70
39899;DHT22;25571;47.876;10.642;2023-05-07T13:11:12;22.30;71.30
39899;DHT22;25571;47.876;10.642;2023-05-07T13:13:39;22.30;72.80
39899;DHT22;25571;47.876;10.642;2023-05-07T13:16:07;22.40;71.80
39899;DHT22;25571;47.876;10.642;2023-05-07T13:18:33;22.50;70.70
39899;DHT22;25571;47.876;10.642;2023-05-07T13:20:59;22.60;69.60
39899;DHT22;25571;47.876;10.642;2023-05-07T13:23:26;22.50;70.80
39899;DHT22;25571;47.876;10.642;2023-05-07T13:25:52;22.20;74.50
39899;DHT22;25571;47.876;10.642;2023-05-07T13:28:19;22.10;74.80
39899;DHT22;25571;47.876;10.642;2023-05-07T13:30:45;22.10;76.30
39899;DHT22;25571;47.876;10.642;2023-05-07T13:33:11;22.10;76.00
39899;DHT22;25571;47.876;10.642;2023-05-07T13:35:37;22.10;74.80
39899;DHT22;25571;47.876;10.642;2023-05-07T13:38:03;22.00;76.60
39899;DHT22;25571;47.876;10.642;2023-05-07T13:40:29;21.80;76.70
39899;DHT22;25571;47.876;10.642;2023-05-07T13:42:57;21.60;76.50
39899;DHT22;25571;47.876;10.642;2023-05-07T13:45:24;21.60;75.90
39899;DHT22;25571;47.876;10.642;2023-05-07T13:47:51;21.40;75.20
39899;DHT22;25571;47.876;10.642;2023-05-07T13:50:17;21.20;76.50
39899;DHT22;25571;47.876;10.642;2023-05-07T13:52:43;21.20;78.30
39899;DHT22;25571;47.876;10.642;2023-05-07T13:55:19;21.20;76.50
39899;DHT22;25571;47.876;10.642;2023-05-07T13:57:45;21.10;77.60
39899;DHT22;25571;47.876;10.642;2023-05-07T14:00:11;21.00;77.80
39899;DHT22;25571;47.876;10.642;2023-05-07T14:02:37;20.90;83.10
39899;DHT22;25571;47.876;10.642;2023-05-07T14:05:04;20.70;82.80
39899;DHT22;25571;47.876;10.642;2023-05-07T14:07:29;20.60;85.50
39899;DHT22;25571;47.876;10.642;2023-05-07T14:09:56;20.50;84.50
39899;DHT22;25571;47.876;10.642;2023-05-07T14:12:21;20.40;85.80
39899;DHT22;25571;47.876;10.642;2023-05-07T14:14:47;20.50;89.40
39899;DHT22;25571;47.876;10.642;2023-05-07T14:17:16;20.50;89.80
39899;DHT22;25571;47.876;10.642;2023-05-07T14:19:41;20.50;91.20
39899;DHT22;25571;47.876;10.642;2023-05-07T14:22:07;20.50;91.00
39899;DHT22;25571;47.876;10.642;2023-05-07T14:24:32;20.60;91.50
39899;DHT22;25571;47.876;10.642;2023-05-07T14:26:58;20.40;90.40
39899;DHT22;25571;47.876;10.642;2023-05-07T14:29:24;20.60;91.80
39899;DHT22;25571;47.876;10.642;2023-05-07T14:31:49;20.70;91.80
39899;DHT22;25571;47.876;10.642;2023-05-07T14:34:15;20.80;93.40
39899;DHT22;25571;47.876;10.642;2023-05-07T14:36:40;20.70;91.30
39899;DHT22;25571;47.876;10.642;2023-05-07T14:39:06;20.70;90.80
39899;DHT22;25571;47.876;10.642;2023-05-07T14:41:32;20.70;92.00
39899;DHT22;25571;47.876;10.642;2023-05-07T14:43:58;20.80;93.00
39899;DHT22;25571;47.876;10.642;2023-05-07T14:46:24;20.90;92.10
39899;DHT22;25571;47.876;10.642;2023-05-07T14:48:50;20.90;86.40
39899;DHT22;25571;47.876;10.642;2023-05-07T14:51:15;21.00;91.10
39899;DHT22;25571;47.876;10.642;2023-05-07T14:53:41;21.00;88.80
39899;DHT22;25571;47.876;10.642;2023-05-07T14:56:07;21.00;84.40
39899;DHT22;25571;47.876;10.642;2023-05-07T14:58:33;20.80;77.60
39899;DHT22;25571;47.876;10.642;2023-05-07T15:00:59;20.70;74.30
39899;DHT22;25571;47.876;10.642;2023-05-07T15:03:25;20.70;78.50
39899;DHT22;25571;47.876;10.642;2023-05-07T15:05:51;20.70;77.90
39899;DHT22;25571;47.876;10.642;2023-05-07T15:08:17;20.80;79.50
39899;DHT22;25571;47.876;10.642;2023-05-07T15:10:43;20.80;81.60
39899;DHT22;25571;47.876;10.642;2023-05-07T15:13:09;20.90;83.20
39899;DHT22;25571;47.876;10.642;2023-05-07T15:15:35;20.90;82.70
39899;DHT22;25571;47.876;10.642;2023-05-07T15:18:02;20.90;85.10
39899;DHT22;25571;47.876;10.642;2023-05-07T15:20:28;20.90;85.70
39899;DHT22;25571;47.876;10.642;2023-05-07T15:22:53;20.90;85.70
39899;DHT22;25571;47.876;10.642;2023-05-07T15:25:19;20.80;83.30
39899;DHT22;25571;47.876;10.642;2023-05-07T15:27:45;20.60;82.60
39899;DHT22;25571;47.876;10.642;2023-05-07T15:30:11;20.50;85.40
39899;DHT22;25571;47.876;10.642;2023-05-07T15:32:37;20.50;84.00